»·PEaware :: N82SB CYXX-KPDX

N82SB :: CYXX-KPDX

FLIGHT INFORMATION

Flight Status: Arrived
Operator: Privately registered:
United States
More flights under this callsign
Pilot: Robert L. (6895)
Aircraft: BEECH AIRCRAFT BARON
(BE58)
More flights by this aircraft type
Origin: CYXX Abbotsford
Canada
Destination: KPDX Portland Intl
United States
More flights between these airports :: More routes between these airports
Route: +ACORD V23 SEA V495 BTG
File this flight plan on PilotEdge
Remarks:
Altitude:
(Current/Filed)
9,000ft
Speed:
(Current/Filed)
160kts
Departed: 28-Dec-16 03:43 PM
Arrived: 28-Dec-16 04:44 PM
Distance/Time
Traveled:
207nm/1:01
Distance/Time
To Go:
Arrived

Flight Plot

Page will automatically refresh every two minutes.

Flight plan parsing failed; only flown route is shown


Map Options




Map Legend


Flown Route
Filed Route
Departure Airport
Arrival Airport
Navaid (VOR, NDB)
Fix

Horizontal Profiles

Position Reports

Time Latitude Longitude Heading Altitude Ground
Speed
28-Dec-16 15:41 48.075404 -122.323745 171 9027ft 162kts
28-Dec-16 15:42 48.038191 -122.312057 174 9042ft 136kts
28-Dec-16 15:43 47.997217 -122.300380 173 9038ft 171kts
28-Dec-16 15:44 47.947662 -122.286071 173 9029ft 187kts
28-Dec-16 15:45 47.899501 -122.279295 186 9024ft 164kts
28-Dec-16 15:46 47.855141 -122.282128 186 9554ft 158kts
28-Dec-16 15:47 47.812316 -122.284864 188 10537ft 153kts
28-Dec-16 15:48 47.768379 -122.287934 188 11039ft 171kts
28-Dec-16 15:49 47.719085 -122.291246 187 11042ft 182kts
28-Dec-16 15:50 47.667643 -122.294555 187 11048ft 191kts
28-Dec-16 15:51 47.614028 -122.298155 187 11047ft 193kts
28-Dec-16 15:52 47.561417 -122.301521 187 11045ft 189kts
28-Dec-16 15:53 47.508991 -122.304938 187 11045ft 188kts
28-Dec-16 15:54 47.456944 -122.308320 187 11043ft 189kts
28-Dec-16 15:55 47.405745 -122.314827 191 11042ft 189kts
28-Dec-16 15:56 47.353227 -122.323876 191 11016ft 192kts
28-Dec-16 15:57 47.300789 -122.332876 191 11013ft 191kts
28-Dec-16 15:58 47.248049 -122.341906 191 11015ft 190kts
28-Dec-16 15:59 47.195482 -122.350890 191 11016ft 190kts
28-Dec-16 16:00 47.143235 -122.359802 191 11017ft 190kts
28-Dec-16 16:01 47.090946 -122.368705 191 11018ft 190kts
28-Dec-16 16:02 47.038485 -122.377618 191 11018ft 190kts
28-Dec-16 16:03 46.986311 -122.386482 191 11016ft 190kts
28-Dec-16 16:04 46.933597 -122.395409 191 11013ft 191kts
28-Dec-16 16:05 46.880840 -122.404321 191 11009ft 192kts
28-Dec-16 16:06 46.827868 -122.413232 191 11009ft 192kts
28-Dec-16 16:07 46.774847 -122.422147 191 11009ft 192kts
28-Dec-16 16:08 46.722032 -122.431015 191 11010ft 192kts
28-Dec-16 16:09 46.668807 -122.439926 191 11031ft 192kts
28-Dec-16 16:10 46.615662 -122.448822 191 11029ft 192kts
28-Dec-16 16:11 46.562596 -122.457678 191 11029ft 193kts
28-Dec-16 16:12 46.509576 -122.466509 191 11039ft 192kts
28-Dec-16 16:13 46.456399 -122.475352 191 11050ft 193kts
28-Dec-16 16:14 46.415704 -122.482106 191 11059ft 193kts
28-Dec-16 16:15 46.363658 -122.490731 191 11064ft 193kts
28-Dec-16 16:16 46.310066 -122.499607 191 11064ft 196kts
28-Dec-16 16:17 46.256056 -122.508513 191 11064ft 196kts
28-Dec-16 16:18 46.202095 -122.517398 191 11063ft 196kts
28-Dec-16 16:19 46.148335 -122.526225 191 11063ft 196kts
28-Dec-16 16:20 46.093904 -122.535160 191 11000ft 199kts
28-Dec-16 16:21 46.037615 -122.544342 190 9760ft 191kts
28-Dec-16 16:22 45.988155 -122.552541 187 8355ft 174kts
28-Dec-16 16:23 45.937928 -122.558675 164 6895ft 187kts
28-Dec-16 16:24 45.891034 -122.527922 154 5547ft 186kts
28-Dec-16 16:25 45.852049 -122.502034 154 5068ft 119kts
28-Dec-16 16:26 45.818662 -122.480400 154 5097ft 152kts
28-Dec-16 16:27 45.777574 -122.453805 154 5084ft 167kts
28-Dec-16 16:28 45.734621 -122.426495 154 5083ft 170kts
28-Dec-16 16:29 45.692177 -122.399122 154 5075ft 170kts
28-Dec-16 16:30 45.649350 -122.365715 154 4606ft 183kts
28-Dec-16 16:31 45.607866 -122.333655 153 3609ft 167kts
28-Dec-16 16:33 45.567397 -122.303016 154 3075ft 163kts
28-Dec-16 16:34 45.527499 -122.272896 153 3064ft 154kts
28-Dec-16 16:35 45.492280 -122.255044 212 3074ft 135kts
28-Dec-16 16:36 45.482480 -122.304118 263 3074ft 136kts
28-Dec-16 16:37 45.491013 -122.354533 297 3074ft 138kts
28-Dec-16 16:38 45.509712 -122.403090 298 2862ft 152kts
28-Dec-16 16:39 45.531270 -122.458164 298 2018ft 144kts
28-Dec-16 16:40 45.545967 -122.495690 298 1431ft 99kts
28-Dec-16 16:41 45.559252 -122.529681 298 916ft 99kts
28-Dec-16 16:42 45.572578 -122.563765 298 393ft 97kts
28-Dec-16 16:43 45.584491 -122.594194 300 32ft 55kts
28-Dec-16 16:44 45.585655 -122.602919 176 32ft 0kts

Navigation Log

Ident Type
Flight plan parsing failed, navigation log unavailable